This is the latest recevied weather packets stored in our database for station/object OK2ZAW-19. If no packets are shown the sender has not sent any weather packets the latest 1 day(s).
| Time | Temp. | Humidity | Pressure | Rain* | Wind** | Luminosity | Snow |
|---|---|---|---|---|---|---|---|
| 1778090261 | 16.11° C | 70% | 1005.1 hPa | - | - | 337 W/m² | - |
| 1778088705 | 18.33° C | 57% | 1005.1 hPa | - | - | 337 W/m² | - |
| 1778088394 | 18.89° C | 54% | 1005 hPa | - | - | 337 W/m² | - |
| 1778087771 | 21.11° C | 49% | 1005 hPa | - | - | 337 W/m² | - |
| 1778086836 | 23.33° C | 45% | 1004.9 hPa | - | - | 337 W/m² | - |
| 1778084341 | 23.33° C | 50% | 1005.4 hPa | - | - | 337 W/m² | - |
| 1778082783 | 20.56° C | 55% | 1005.6 hPa | - | - | 337 W/m² | - |
| 1778081537 | 20° C | 57% | 1005.8 hPa | - | - | 337 W/m² | - |
| 1778080291 | 23.33° C | 51% | 1006 hPa | - | - | 337 W/m² | - |
| 1778078732 | 20.56° C | 59% | 1006.5 hPa | - | - | 337 W/m² | - |
| 1778078109 | 21.11° C | 60% | 1006.5 hPa | - | - | 337 W/m² | - |
| 1778077486 | 20° C | 61% | 1006.7 hPa | - | - | 337 W/m² | - |
| 1778076863 | 20.56° C | 61% | 1006.8 hPa | - | - | 336 W/m² | - |
| 1778075929 | 19.44° C | 61% | 1006.9 hPa | - | - | 337 W/m² | - |
| 1778075306 | 19.44° C | 62% | 1006.9 hPa | - | - | 337 W/m² | - |
| 1778073438 | 19.44° C | 61% | 1007.3 hPa | - | - | 337 W/m² | - |
| 1778072504 | 19.44° C | 60% | 1007.6 hPa | - | - | 337 W/m² | - |
| 1778071570 | 17.78° C | 69% | 1007.7 hPa | - | - | 338 W/m² | - |
| 1778069703 | 18.89° C | 64% | 1008 hPa | - | - | 337 W/m² | - |
| 1778068769 | 19.44° C | 64% | 1008 hPa | - | - | 337 W/m² | - |
| 1778068146 | 19.44° C | 66% | 1008.1 hPa | - | - | 337 W/m² | - |
| 1778067835 | 19.44° C | 66% | 1008 hPa | - | - | 337 W/m² | - |
| 1778067212 | 19.44° C | 64% | 1008.1 hPa | - | - | 337 W/m² | - |
| 1778066901 | 19.44° C | 67% | 1008.2 hPa | - | - | 337 W/m² | - |
| 1778065344 | 20° C | 64% | 1008.4 hPa | - | - | 337 W/m² | - |
* Rain since midnight (hover to see other rain measurements)
** Current wind speed in m/s (hover to see current wind gust speed)